Time;durP1;ratioP1;P1;durP2;ratioP2;P2;SDS_P1;SDS_P2;PMS_P1;PMS_P2;Temp;Humidity;BMP_temperature;BMP_pressure;BME280_temperature;BME280_humidity;BME280_pressure;Samples;Min_cycle;Max_cycle;Signal;HPM_P1;HPM_P2
2023/01/08 00:00:11;;;;;;;96.10;40.20;;;;;;;-128.00;-1.00;-1.00;101183;1302;1004658;-30
2023/01/08 00:02:37;;;;;;;124.30;47.80;;;;;;;-128.00;-1.00;-1.00;101234;1302;1003473;-35
2023/01/08 00:05:03;;;;;;;94.00;45.00;;;;;;;-128.00;-1.00;-1.00;101134;1302;1004426;-34
2023/01/08 00:07:29;;;;;;;74.60;36.60;;;;;;;-128.00;-1.00;-1.00;101403;1302;1004773;-35
2023/01/08 00:09:55;;;;;;;76.70;36.60;;;;;;;-128.00;-1.00;-1.00;101197;1302;1005071;-30
2023/01/08 00:12:20;;;;;;;86.40;37.50;;;;;;;-128.00;-1.00;-1.00;101156;1302;1004303;-30
2023/01/08 00:14:46;;;;;;;91.40;40.40;;;;;;;-128.00;-1.00;-1.00;101491;1302;1004475;-31
2023/01/08 00:17:12;;;;;;;102.00;44.80;;;;;;;-128.00;-1.00;-1.00;101475;1302;1003226;-35
2023/01/08 00:19:40;;;;;;;85.10;34.90;;;;;;;-128.00;-1.00;-1.00;101481;1302;1003857;-31
2023/01/08 00:22:06;;;;;;;94.50;44.60;;;;;;;-128.00;-1.00;-1.00;101340;1302;1003217;-33
2023/01/08 00:24:32;;;;;;;95.00;46.40;;;;;;;-128.00;-1.00;-1.00;101371;1302;1003889;-29
2023/01/08 00:26:58;;;;;;;94.90;41.20;;;;;;;-128.00;-1.00;-1.00;101384;1302;1005412;-34
2023/01/08 00:29:23;;;;;;;109.70;45.50;;;;;;;-128.00;-1.00;-1.00;101325;1302;1003927;-34
2023/01/08 00:31:49;;;;;;;89.60;39.00;;;;;;;-128.00;-1.00;-1.00;101480;1303;1003561;-34
2023/01/08 00:34:15;;;;;;;80.80;35.40;;;;;;;-128.00;-1.00;-1.00;101428;1302;1004668;-38
2023/01/08 00:36:40;;;;;;;95.70;40.60;;;;;;;-128.00;-1.00;-1.00;101334;1302;1002973;-35
2023/01/08 00:39:06;;;;;;;82.60;35.40;;;;;;;-128.00;-1.00;-1.00;101358;1302;1004793;-35
2023/01/08 00:41:32;;;;;;;85.90;39.70;;;;;;;-128.00;-1.00;-1.00;101323;1302;1003315;-35
2023/01/08 00:43:58;;;;;;;88.30;39.40;;;;;;;-128.00;-1.00;-1.00;101365;1302;1003946;-31
2023/01/08 00:46:23;;;;;;;82.70;36.40;;;;;;;-128.00;-1.00;-1.00;101426;1302;1003387;-35
2023/01/08 00:48:49;;;;;;;92.50;39.30;;;;;;;-128.00;-1.00;-1.00;101390;1303;1004784;-31
2023/01/08 00:51:16;;;;;;;84.50;35.80;;;;;;;-128.00;-1.00;-1.00;101356;1303;1003220;-34
2023/01/08 00:53:41;;;;;;;77.30;34.10;;;;;;;-128.00;-1.00;-1.00;101338;1303;1003386;-30
2023/01/08 00:56:08;;;;;;;75.50;34.60;;;;;;;-128.00;-1.00;-1.00;101276;1302;1003645;-30
2023/01/08 00:58:34;;;;;;;76.50;35.70;;;;;;;-128.00;-1.00;-1.00;101408;1302;1003398;-30
2023/01/08 01:01:00;;;;;;;82.20;36.70;;;;;;;-128.00;-1.00;-1.00;101131;1303;1004423;-31
2023/01/08 01:03:26;;;;;;;85.80;40.10;;;;;;;-128.00;-1.00;-1.00;101463;1302;1003580;-30
2023/01/08 01:06:02;;;;;;;86.00;37.70;;;;;;;-128.00;-1.00;-1.00;101336;1303;1003356;-30
2023/01/08 01:08:28;;;;;;;76.70;33.80;;;;;;;-128.00;-1.00;-1.00;101397;1303;1003590;-34
2023/01/08 01:10:54;;;;;;;79.60;37.40;;;;;;;-128.00;-1.00;-1.00;101462;1303;1004208;-30
2023/01/08 01:13:20;;;;;;;67.10;31.10;;;;;;;-128.00;-1.00;-1.00;101414;1303;1002960;-33
2023/01/08 01:15:45;;;;;;;71.00;30.20;;;;;;;-128.00;-1.00;-1.00;101299;1303;1004122;-31
2023/01/08 01:18:11;;;;;;;83.70;35.90;;;;;;;-128.00;-1.00;-1.00;101265;1302;1003075;-34
2023/01/08 01:20:37;;;;;;;81.20;33.60;;;;;;;-128.00;-1.00;-1.00;101401;1303;1003080;-34
2023/01/08 01:23:03;;;;;;;96.40;40.60;;;;;;;-128.00;-1.00;-1.00;101310;1303;1002670;-30
2023/01/08 01:25:29;;;;;;;75.10;36.40;;;;;;;-128.00;-1.00;-1.00;101397;1303;1003324;-34
2023/01/08 01:27:54;;;;;;;73.10;33.90;;;;;;;-128.00;-1.00;-1.00;101329;1302;1003142;-35
2023/01/08 01:30:20;;;;;;;68.40;31.10;;;;;;;-128.00;-1.00;-1.00;101362;1303;1003789;-30
2023/01/08 01:32:46;;;;;;;63.90;29.80;;;;;;;-128.00;-1.00;-1.00;101318;1303;1003894;-34
2023/01/08 01:35:12;;;;;;;69.00;35.50;;;;;;;-128.00;-1.00;-1.00;101281;1303;1003984;-30
2023/01/08 01:37:38;;;;;;;88.90;34.90;;;;;;;-128.00;-1.00;-1.00;101233;1302;1002971;-30
2023/01/08 01:40:05;;;;;;;86.10;32.50;;;;;;;-128.00;-1.00;-1.00;101269;1303;1003393;-31
2023/01/08 01:45:21;;;;;;;63.80;29.20;;;;;;;-128.00;-1.00;-1.00;101247;1303;1005278;-35
2023/01/08 01:47:54;;;;;;;68.50;31.10;;;;;;;-128.00;-1.00;-1.00;101318;1302;1003121;-34
2023/01/08 01:50:27;;;;;;;57.10;25.50;;;;;;;-128.00;-1.00;-1.00;101246;1302;1003786;-30
2023/01/08 01:53:13;;;;;;;72.40;33.80;;;;;;;-128.00;-1.00;-1.00;101284;1303;1003560;-30
2023/01/08 01:55:41;;;;;;;62.10;31.50;;;;;;;-128.00;-1.00;-1.00;101323;1303;1004809;-34
2023/01/08 01:58:16;;;;;;;63.10;29.40;;;;;;;-128.00;-1.00;-1.00;101239;1302;1003740;-34
2023/01/08 02:00:42;;;;;;;70.10;30.90;;;;;;;-128.00;-1.00;-1.00;101276;1303;1004255;-33
2023/01/08 02:03:09;;;;;;;75.30;32.90;;;;;;;-128.00;-1.00;-1.00;101301;1303;1003319;-31
2023/01/08 02:05:57;;;;;;;59.20;29.30;;;;;;;-128.00;-1.00;-1.00;101302;1303;1003852;-30
2023/01/08 02:08:46;;;;;;;68.80;30.40;;;;;;;-128.00;-1.00;-1.00;101287;1303;1005336;-34
2023/01/08 02:11:16;;;;;;;64.60;28.00;;;;;;;-128.00;-1.00;-1.00;101270;1303;1003802;-30
2023/01/08 02:13:46;;;;;;;61.40;26.20;;;;;;;-128.00;-1.00;-1.00;101321;1302;1002802;-32
2023/01/08 02:16:18;;;;;;;51.40;25.00;;;;;;;-128.00;-1.00;-1.00;101378;1303;1003193;-29
2023/01/08 02:18:49;;;;;;;50.50;23.50;;;;;;;-128.00;-1.00;-1.00;101332;1303;1003373;-30
2023/01/08 02:21:39;;;;;;;48.80;23.70;;;;;;;-128.00;-1.00;-1.00;101340;1303;1003742;-32
2023/01/08 02:24:13;;;;;;;49.70;22.70;;;;;;;-128.00;-1.00;-1.00;101287;1303;1005057;-30
2023/01/08 02:26:39;;;;;;;68.00;30.20;;;;;;;-128.00;-1.00;-1.00;101267;1297;1004747;-33
2023/01/08 02:29:09;;;;;;;54.60;26.80;;;;;;;-128.00;-1.00;-1.00;101393;1303;1003677;-29
2023/01/08 02:31:37;;;;;;;50.00;25.60;;;;;;;-128.00;-1.00;-1.00;101227;1303;1003054;-31
2023/01/08 02:34:03;;;;;;;59.10;26.90;;;;;;;-128.00;-1.00;-1.00;101416;1303;1004272;-30
2023/01/08 02:36:36;;;;;;;56.70;26.00;;;;;;;-128.00;-1.00;-1.00;101396;1303;1003733;-30
2023/01/08 02:39:15;;;;;;;47.10;23.10;;;;;;;-128.00;-1.00;-1.00;101367;1303;1002510;-29
2023/01/08 02:42:05;;;;;;;56.20;24.10;;;;;;;-128.00;-1.00;-1.00;101425;1303;1003076;-30
2023/01/08 02:44:54;;;;;;;61.60;26.10;;;;;;;-128.00;-1.00;-1.00;101369;1302;1004327;-29
2023/01/08 02:47:31;;;;;;;53.10;23.00;;;;;;;-128.00;-1.00;-1.00;101296;1303;1002573;-34
2023/01/08 02:50:09;;;;;;;63.70;25.80;;;;;;;-128.00;-1.00;-1.00;101449;1303;1003109;-31
2023/01/08 02:52:40;;;;;;;58.80;23.90;;;;;;;-128.00;-1.00;-1.00;101239;1296;1002674;-33
2023/01/08 02:55:07;;;;;;;48.70;20.50;;;;;;;-128.00;-1.00;-1.00;101416;1303;1003470;-29
2023/01/08 02:57:33;;;;;;;64.90;29.80;;;;;;;-128.00;-1.00;-1.00;101406;1303;1004074;-33
2023/01/08 02:59:59;;;;;;;47.80;25.90;;;;;;;-128.00;-1.00;-1.00;101305;1303;1005317;-36
2023/01/08 03:02:26;;;;;;;52.80;25.30;;;;;;;-128.00;-1.00;-1.00;101443;1303;1003074;-29
2023/01/08 03:04:53;;;;;;;52.40;23.80;;;;;;;-128.00;-1.00;-1.00;101420;1303;1003008;-29
2023/01/08 03:07:19;;;;;;;44.30;23.70;;;;;;;-128.00;-1.00;-1.00;101333;1303;1003934;-33
2023/01/08 03:09:45;;;;;;;55.70;24.60;;;;;;;-128.00;-1.00;-1.00;101374;1303;1002612;-32
2023/01/08 03:12:27;;;;;;;53.50;23.70;;;;;;;-128.00;-1.00;-1.00;101406;1303;1003295;-29
2023/01/08 03:15:03;;;;;;;51.40;24.90;;;;;;;-128.00;-1.00;-1.00;101387;1303;1003382;-30
2023/01/08 03:17:34;;;;;;;61.30;28.00;;;;;;;-128.00;-1.00;-1.00;101307;1300;1003098;-34
2023/01/08 03:20:09;;;;;;;44.60;21.60;;;;;;;-128.00;-1.00;-1.00;101383;1297;1003200;-34
2023/01/08 03:22:36;;;;;;;70.00;29.40;;;;;;;-128.00;-1.00;-1.00;101404;1303;1003196;-34
2023/01/08 03:25:02;;;;;;;48.30;22.90;;;;;;;-128.00;-1.00;-1.00;101125;1303;1002902;-30
2023/01/08 03:27:28;;;;;;;56.20;25.50;;;;;;;-128.00;-1.00;-1.00;101441;1300;1004164;-34
2023/01/08 03:29:55;;;;;;;46.60;21.90;;;;;;;-128.00;-1.00;-1.00;101268;1303;1005614;-34
2023/01/08 03:32:21;;;;;;;47.40;24.10;;;;;;;-128.00;-1.00;-1.00;101297;1303;1002879;-33
2023/01/08 03:34:47;;;;;;;46.90;22.50;;;;;;;-128.00;-1.00;-1.00;101303;1303;1002351;-29
2023/01/08 03:37:14;;;;;;;44.40;22.20;;;;;;;-128.00;-1.00;-1.00;101247;1302;1004202;-33
2023/01/08 03:39:43;;;;;;;40.00;19.70;;;;;;;-128.00;-1.00;-1.00;101287;1303;1003532;-33
2023/01/08 03:42:10;;;;;;;44.50;21.90;;;;;;;-128.00;-1.00;-1.00;101431;1300;1002602;-33
2023/01/08 03:44:36;;;;;;;59.70;25.10;;;;;;;-128.00;-1.00;-1.00;101395;1303;1003476;-29
2023/01/08 03:47:02;;;;;;;38.40;19.20;;;;;;;-128.00;-1.00;-1.00;101267;1300;1004339;-34
2023/01/08 03:49:28;;;;;;;55.20;22.90;;;;;;;-128.00;-1.00;-1.00;101323;1303;1002928;-30
2023/01/08 03:51:54;;;;;;;45.00;20.40;;;;;;;-128.00;-1.00;-1.00;101290;1303;1003473;-34
2023/01/08 03:54:23;;;;;;;44.20;19.10;;;;;;;-128.00;-1.00;-1.00;101250;1303;1003898;-30
2023/01/08 03:56:49;;;;;;;43.60;20.00;;;;;;;-128.00;-1.00;-1.00;101377;1299;1003597;-34
2023/01/08 03:59:15;;;;;;;47.00;20.80;;;;;;;-128.00;-1.00;-1.00;101531;1303;1003396;-31
2023/01/08 04:01:41;;;;;;;48.40;19.80;;;;;;;-128.00;-1.00;-1.00;101358;1303;1003939;-32
2023/01/08 04:04:06;;;;;;;57.90;24.90;;;;;;;-128.00;-1.00;-1.00;101499;1303;1002550;-33
2023/01/08 04:06:32;;;;;;;40.80;20.60;;;;;;;-128.00;-1.00;-1.00;101260;1302;1003085;-29
2023/01/08 04:08:58;;;;;;;34.80;18.20;;;;;;;-128.00;-1.00;-1.00;101239;1303;1003448;-29
2023/01/08 04:11:24;;;;;;;31.00;15.00;;;;;;;-128.00;-1.00;-1.00;101441;1303;1002813;-30
2023/01/08 04:13:50;;;;;;;38.30;18.40;;;;;;;-128.00;-1.00;-1.00;101367;1303;1003303;-29
2023/01/08 04:16:15;;;;;;;37.70;19.30;;;;;;;-128.00;-1.00;-1.00;101256;1280;1004901;-31
2023/01/08 04:18:41;;;;;;;39.20;19.60;;;;;;;-128.00;-1.00;-1.00;101395;1302;1003374;-29
2023/01/08 04:21:07;;;;;;;30.40;17.10;;;;;;;-128.00;-1.00;-1.00;101301;1303;1003556;-29
2023/01/08 04:23:33;;;;;;;29.60;15.90;;;;;;;-128.00;-1.00;-1.00;101371;1303;1004060;-29
2023/01/08 04:25:58;;;;;;;60.50;26.30;;;;;;;-128.00;-1.00;-1.00;101457;1303;1003433;-29
2023/01/08 04:28:24;;;;;;;45.10;21.10;;;;;;;-128.00;-1.00;-1.00;101279;1302;1003004;-29
2023/01/08 04:30:50;;;;;;;32.40;14.60;;;;;;;-128.00;-1.00;-1.00;101403;1303;1003651;-29
2023/01/08 04:33:16;;;;;;;30.90;14.50;;;;;;;-128.00;-1.00;-1.00;101408;1303;1004748;-31
2023/01/08 04:35:42;;;;;;;29.80;14.90;;;;;;;-128.00;-1.00;-1.00;101366;1303;1004205;-30
2023/01/08 05:15:07;;;;;;;37.80;18.30;;;;;;;-102.07;19.20;19835.54;101547;1288;1545238;-33
2023/01/08 05:17:33;;;;;;;41.80;18.90;;;;;;;-128.00;-1.00;-1.00;100657;1303;1004458;-33
2023/01/08 05:19:59;;;;;;;58.20;18.30;;;;;;;-128.00;-1.00;-1.00;101143;1304;1004443;-33
2023/01/08 05:22:25;;;;;;;55.00;20.20;;;;;;;-128.00;-1.00;-1.00;101032;1304;1004155;-33
2023/01/08 05:24:51;;;;;;;45.40;18.30;;;;;;;-128.00;-1.00;-1.00;101064;1304;1004893;-34
2023/01/08 05:27:16;;;;;;;32.20;16.20;;;;;;;-128.00;-1.00;-1.00;101020;1304;1004656;-33
2023/01/08 05:29:42;;;;;;;35.80;18.40;;;;;;;-128.00;-1.00;-1.00;101122;1304;1004466;-33
2023/01/08 05:32:13;;;;;;;41.30;19.40;;;;;;;-128.00;-1.00;-1.00;98942;1304;1004309;-33
2023/01/08 05:34:39;;;;;;;38.30;19.80;;;;;;;-128.00;-1.00;-1.00;96210;1304;2002637;-29
2023/01/08 05:37:05;;;;;;;43.50;20.90;;;;;;;-128.00;-1.00;-1.00;101244;1304;1003354;-33
2023/01/08 05:39:31;;;;;;;38.00;17.10;;;;;;;-128.00;-1.00;-1.00;100449;1304;1002901;-29
2023/01/08 05:41:57;;;;;;;48.00;19.40;;;;;;;-128.00;-1.00;-1.00;101310;1304;1003457;-29
2023/01/08 05:44:22;;;;;;;41.40;17.30;;;;;;;-128.00;-1.00;-1.00;101336;1304;1004707;-33
2023/01/08 05:46:48;;;;;;;49.70;21.70;;;;;;;-128.00;-1.00;-1.00;101135;1304;1003148;-33
2023/01/08 05:49:14;;;;;;;42.30;18.80;;;;;;;-128.00;-1.00;-1.00;101424;1304;1002935;-29
2023/01/08 05:51:40;;;;;;;54.00;20.60;;;;;;;-128.00;-1.00;-1.00;101293;1304;1002919;-29
2023/01/08 05:54:06;;;;;;;41.90;18.60;;;;;;;-128.00;-1.00;-1.00;101386;1304;1003802;-33
2023/01/08 05:56:32;;;;;;;58.50;22.80;;;;;;;-128.00;-1.00;-1.00;101355;1304;1003003;-29
2023/01/08 05:58:58;;;;;;;39.60;21.40;;;;;;;-128.00;-1.00;-1.00;101214;1304;1003249;-33
2023/01/08 06:01:24;;;;;;;47.50;19.80;;;;;;;-128.00;-1.00;-1.00;101272;1304;1003275;-32
2023/01/08 06:03:49;;;;;;;37.50;17.60;;;;;;;-128.00;-1.00;-1.00;101295;1304;1002731;-34
2023/01/08 06:06:15;;;;;;;52.20;22.20;;;;;;;-128.00;-1.00;-1.00;101308;1304;1003948;-34
2023/01/08 06:08:41;;;;;;;36.20;18.90;;;;;;;-128.00;-1.00;-1.00;101208;1304;1003847;-33
2023/01/08 06:11:07;;;;;;;53.10;23.70;;;;;;;-128.00;-1.00;-1.00;101255;1304;1003175;-34
2023/01/08 06:13:33;;;;;;;46.70;22.20;;;;;;;-128.00;-1.00;-1.00;101294;1304;1004066;-34
2023/01/08 06:16:00;;;;;;;47.50;21.40;;;;;;;-128.00;-1.00;-1.00;101336;1304;1003082;-30
2023/01/08 06:18:26;;;;;;;51.00;24.70;;;;;;;-128.00;-1.00;-1.00;101230;1304;1003399;-30
2023/01/08 06:20:52;;;;;;;40.10;20.90;;;;;;;-128.00;-1.00;-1.00;101211;1304;1003905;-30
2023/01/08 06:23:18;;;;;;;58.90;26.60;;;;;;;-128.00;-1.00;-1.00;101206;1304;1002298;-30
2023/01/08 06:25:44;;;;;;;52.50;24.90;;;;;;;-128.00;-1.00;-1.00;101153;1301;1003083;-30
2023/01/08 06:28:09;;;;;;;39.30;19.70;;;;;;;-128.00;-1.00;-1.00;101161;1304;1003114;-30
2023/01/08 06:30:35;;;;;;;42.20;21.40;;;;;;;-128.00;-1.00;-1.00;101138;1304;1004341;-30
2023/01/08 06:33:01;;;;;;;60.20;25.30;;;;;;;-128.00;-1.00;-1.00;101233;1304;1003792;-37
2023/01/08 06:35:27;;;;;;;50.70;24.30;;;;;;;-128.00;-1.00;-1.00;101210;1304;1003596;-34
2023/01/08 06:37:54;;;;;;;57.90;24.10;;;;;;;-128.00;-1.00;-1.00;101236;1304;1002809;-31
2023/01/08 06:40:20;;;;;;;50.40;24.50;;;;;;;-128.00;-1.00;-1.00;101264;1304;1004204;-34
2023/01/08 06:42:46;;;;;;;51.00;23.00;;;;;;;-128.00;-1.00;-1.00;101277;1304;1003571;-34
2023/01/08 06:45:12;;;;;;;41.70;19.50;;;;;;;-128.00;-1.00;-1.00;101223;1304;1003177;-34
2023/01/08 06:47:38;;;;;;;61.00;22.00;;;;;;;-128.00;-1.00;-1.00;101148;1304;1003017;-30
2023/01/08 06:50:05;;;;;;;41.30;18.10;;;;;;;-128.00;-1.00;-1.00;101159;1301;1003065;-30
2023/01/08 06:52:31;;;;;;;39.00;19.50;;;;;;;-128.00;-1.00;-1.00;101273;1301;1002504;-33
2023/01/08 06:54:57;;;;;;;36.80;19.00;;;;;;;-128.00;-1.00;-1.00;101298;1301;1002817;-31
2023/01/08 06:57:23;;;;;;;40.50;18.00;;;;;;;-128.00;-1.00;-1.00;101229;1304;1004802;-32
2023/01/08 06:59:48;;;;;;;42.40;17.70;;;;;;;-128.00;-1.00;-1.00;101104;1304;1002843;-29
2023/01/08 07:02:14;;;;;;;48.40;19.10;;;;;;;-128.00;-1.00;-1.00;101365;1304;1004796;-30
2023/01/08 07:04:40;;;;;;;45.10;19.40;;;;;;;-128.00;-1.00;-1.00;101208;1304;1002740;-33
2023/01/08 07:07:07;;;;;;;43.10;19.70;;;;;;;-128.00;-1.00;-1.00;101212;1304;1002831;-29
2023/01/08 07:09:34;;;;;;;33.40;15.90;;;;;;;-128.00;-1.00;-1.00;101232;1304;1002826;-29
2023/01/08 07:12:00;;;;;;;54.40;22.80;;;;;;;-128.00;-1.00;-1.00;101157;1304;1003678;-30
2023/01/08 07:14:25;;;;;;;52.80;24.30;;;;;;;-128.00;-1.00;-1.00;101297;1304;1002886;-34
2023/01/08 07:16:51;;;;;;;37.60;19.00;;;;;;;-128.00;-1.00;-1.00;101103;1304;1003494;-29
2023/01/08 07:19:17;;;;;;;37.20;18.80;;;;;;;-128.00;-1.00;-1.00;101126;1304;1004632;-33
2023/01/08 07:21:42;;;;;;;43.50;16.00;;;;;;;-128.00;-1.00;-1.00;101122;1304;1003645;-33
2023/01/08 07:24:08;;;;;;;44.50;20.10;;;;;;;-128.00;-1.00;-1.00;101234;1304;1003201;-33
2023/01/08 07:26:34;;;;;;;39.60;18.30;;;;;;;-128.00;-1.00;-1.00;101122;1304;1003155;-29
2023/01/08 07:29:00;;;;;;;37.80;19.80;;;;;;;-128.00;-1.00;-1.00;101107;1304;1002314;-33
2023/01/08 07:31:25;;;;;;;43.20;18.20;;;;;;;-128.00;-1.00;-1.00;101039;1304;1002878;-34
2023/01/08 07:33:51;;;;;;;33.50;17.00;;;;;;;-128.00;-1.00;-1.00;101130;1304;1003207;-36
2023/01/08 07:36:21;;;;;;;42.00;20.80;;;;;;;-128.00;-1.00;-1.00;101204;1304;1002780;-37
2023/01/08 07:38:50;;;;;;;45.40;20.90;;;;;;;-128.00;-1.00;-1.00;101174;1304;1002773;-29
2023/01/08 07:41:16;;;;;;;48.00;20.70;;;;;;;-128.00;-1.00;-1.00;101161;1304;1004296;-29
2023/01/08 07:43:42;;;;;;;40.00;18.10;;;;;;;-128.00;-1.00;-1.00;101134;1304;1003046;-29
2023/01/08 07:46:08;;;;;;;36.90;17.10;;;;;;;-128.00;-1.00;-1.00;101130;1304;1004242;-29
2023/01/08 07:48:34;;;;;;;46.10;18.30;;;;;;;-128.00;-1.00;-1.00;101243;1304;1003668;-32
2023/01/08 07:51:01;;;;;;;32.60;16.30;;;;;;;-128.00;-1.00;-1.00;101207;1304;1003689;-33
2023/01/08 07:53:27;;;;;;;42.00;19.90;;;;;;;-128.00;-1.00;-1.00;101084;1304;1003737;-33
2023/01/08 07:56:01;;;;;;;50.00;20.10;;;;;;;-128.00;-1.00;-1.00;101211;1304;1004681;-34
2023/01/08 07:58:27;;;;;;;32.20;16.90;;;;;;;-128.00;-1.00;-1.00;101117;1304;1003636;-33
2023/01/08 08:00:54;;;;;;;28.60;15.30;;;;;;;-128.00;-1.00;-1.00;101109;1304;1003439;-28
2023/01/08 08:03:19;;;;;;;35.70;16.30;;;;;;;-128.00;-1.00;-1.00;101147;1304;1004670;-33
2023/01/08 08:05:45;;;;;;;43.70;18.80;;;;;;;-128.00;-1.00;-1.00;101166;1304;1002497;-29
2023/01/08 08:08:12;;;;;;;37.90;18.40;;;;;;;-128.00;-1.00;-1.00;101239;1304;1003126;-33
2023/01/08 08:10:37;;;;;;;;;;;;;;;-128.00;-1.00;-1.00;101163;1304;1003828;-31
2023/01/08 08:13:03;;;;;;;31.10;12.90;;;;;;;-128.00;-1.00;-1.00;101179;1304;1003034;-31
2023/01/08 08:15:30;;;;;;;37.60;18.40;;;;;;;-128.00;-1.00;-1.00;101168;1304;1002902;-31
2023/01/08 08:17:55;;;;;;;35.40;17.90;;;;;;;-128.00;-1.00;-1.00;101195;1304;1004070;-31
2023/01/08 08:20:21;;;;;;;39.80;20.50;;;;;;;-128.00;-1.00;-1.00;101171;1304;1004827;-35
2023/01/08 08:22:47;;;;;;;37.90;17.40;;;;;;;-128.00;-1.00;-1.00;101243;1304;1003726;-30
2023/01/08 08:25:14;;;;;;;35.70;19.00;;;;;;;-128.00;-1.00;-1.00;101075;1304;1003487;-31
2023/01/08 08:27:41;;;;;;;42.80;17.20;;;;;;;-128.00;-1.00;-1.00;101158;1304;1004695;-31
2023/01/08 08:30:07;;;;;;;32.60;15.80;;;;;;;-128.00;-1.00;-1.00;101249;1304;1004578;-32
2023/01/08 08:32:33;;;;;;;32.20;16.50;;;;;;;-128.00;-1.00;-1.00;101255;1304;1003274;-31
2023/01/08 08:34:59;;;;;;;39.30;18.90;;;;;;;-128.00;-1.00;-1.00;101240;1304;1002978;-35
2023/01/08 08:37:25;;;;;;;38.50;18.30;;;;;;;-128.00;-1.00;-1.00;101204;1304;1003528;-32
2023/01/08 08:39:51;;;;;;;38.30;19.50;;;;;;;-128.00;-1.00;-1.00;101099;1304;1003635;-34
2023/01/08 08:42:17;;;;;;;34.00;17.40;;;;;;;-128.00;-1.00;-1.00;101108;1304;1003566;-39
2023/01/08 08:44:43;;;;;;;35.40;17.40;;;;;;;-128.00;-1.00;-1.00;101119;1304;1003222;-30
2023/01/08 08:47:08;;;;;;;38.10;19.20;;;;;;;-128.00;-1.00;-1.00;101155;1304;1003615;-35
2023/01/08 08:49:35;;;;;;;33.60;15.70;;;;;;;-128.00;-1.00;-1.00;101191;1304;1002929;-35
2023/01/08 08:52:02;;;;;;;32.60;16.40;;;;;;;-128.00;-1.00;-1.00;101192;1304;1002763;-30
2023/01/08 08:54:27;;;;;;;30.20;15.60;;;;;;;-128.00;-1.00;-1.00;101133;1304;1003063;-35
2023/01/08 08:56:53;;;;;;;30.90;16.30;;;;;;;-128.00;-1.00;-1.00;101261;1304;1002415;-34
2023/01/08 08:59:19;;;;;;;37.10;16.10;;;;;;;-128.00;-1.00;-1.00;101113;1304;1003362;-31
2023/01/08 09:01:45;;;;;;;37.80;18.40;;;;;;;-128.00;-1.00;-1.00;101203;1304;1003549;-31
2023/01/08 09:04:10;;;;;;;25.80;11.90;;;;;;;-128.00;-1.00;-1.00;101111;1304;1004464;-31
2023/01/08 09:06:36;;;;;;;26.90;13.80;;;;;;;-128.00;-1.00;-1.00;101168;1304;1002728;-34
2023/01/08 09:09:02;;;;;;;28.90;14.20;;;;;;;-128.00;-1.00;-1.00;101193;1304;1003149;-33
2023/01/08 09:11:28;;;;;;;24.40;13.70;;;;;;;-128.00;-1.00;-1.00;101278;1304;1003565;-32
2023/01/08 09:13:54;;;;;;;29.30;13.40;;;;;;;-128.00;-1.00;-1.00;101166;1304;1003394;-33
2023/01/08 09:16:20;;;;;;;33.10;15.90;;;;;;;-128.00;-1.00;-1.00;101166;1304;1003258;-28
2023/01/08 09:18:47;;;;;;;22.40;12.20;;;;;;;-128.00;-1.00;-1.00;101166;1304;1002001;-33
2023/01/08 09:21:13;;;;;;;23.80;11.60;;;;;;;-128.00;-1.00;-1.00;101125;1301;1002672;-30
2023/01/08 09:23:39;;;;;;;24.00;13.30;;;;;;;-128.00;-1.00;-1.00;101164;1298;1002897;-35
2023/01/08 09:26:05;;;;;;;24.80;10.50;;;;;;;-128.00;-1.00;-1.00;101126;1304;1003357;-31
2023/01/08 09:28:31;;;;;;;25.20;14.20;;;;;;;-128.00;-1.00;-1.00;101153;1304;1003518;-31
2023/01/08 09:31:01;;;;;;;26.00;14.30;;;;;;;-128.00;-1.00;-1.00;100918;1304;1003645;-33
2023/01/08 09:33:28;;;;;;;21.90;11.20;;;;;;;-128.00;-1.00;-1.00;101160;1304;1004007;-35
2023/01/08 09:35:53;;;;;;;24.00;13.80;;;;;;;-128.00;-1.00;-1.00;101323;1304;1002764;-32
2023/01/08 09:38:19;;;;;;;25.10;14.70;;;;;;;-128.00;-1.00;-1.00;101168;1304;1003024;-31
2023/01/08 09:40:54;;;;;;;22.90;12.00;;;;;;;-128.00;-1.00;-1.00;101166;1304;1003720;-35
2023/01/08 09:43:20;;;;;;;28.50;14.70;;;;;;;-128.00;-1.00;-1.00;101197;1301;1004573;-34
2023/01/08 09:45:50;;;;;;;32.60;15.50;;;;;;;-128.00;-1.00;-1.00;101229;1304;1004089;-34
2023/01/08 09:48:16;;;;;;;22.60;13.20;;;;;;;-128.00;-1.00;-1.00;101195;1304;1003013;-36
2023/01/08 09:50:42;;;;;;;25.90;13.70;;;;;;;-128.00;-1.00;-1.00;101309;1304;1003007;-34
2023/01/08 09:53:15;;;;;;;28.30;14.20;;;;;;;-128.00;-1.00;-1.00;101143;1304;1002722;-33
2023/01/08 09:55:41;;;;;;;28.10;14.20;;;;;;;-128.00;-1.00;-1.00;101149;1300;1002996;-35
2023/01/08 09:58:23;;;;;;;32.70;14.60;;;;;;;-128.00;-1.00;-1.00;101045;1304;1004466;-31
2023/01/08 10:00:49;;;;;;;22.90;13.30;;;;;;;-128.00;-1.00;-1.00;101238;1304;1002563;-31
2023/01/08 10:03:15;;;;;;;17.20;9.30;;;;;;;-128.00;-1.00;-1.00;101271;1304;1002758;-35
2023/01/08 10:05:41;;;;;;;26.80;14.00;;;;;;;-128.00;-1.00;-1.00;101159;1304;1002480;-35
2023/01/08 10:08:13;;;;;;;24.70;12.60;;;;;;;-128.00;-1.00;-1.00;101145;1304;1003024;-35
2023/01/08 10:10:39;;;;;;;19.40;10.50;;;;;;;-128.00;-1.00;-1.00;101199;1304;1004028;-35
2023/01/08 10:13:04;;;;;;;26.70;12.30;;;;;;;-128.00;-1.00;-1.00;101279;1304;1004365;-33
2023/01/08 10:15:30;;;;;;;22.00;12.20;;;;;;;-128.00;-1.00;-1.00;101154;1304;1003836;-35
2023/01/08 10:18:02;;;;;;;22.50;12.20;;;;;;;-128.00;-1.00;-1.00;101189;1304;1002890;-36
2023/01/08 10:20:28;;;;;;;17.90;10.60;;;;;;;-128.00;-1.00;-1.00;101242;1304;1005103;-32
2023/01/08 10:22:55;;;;;;;16.80;10.00;;;;;;;-128.00;-1.00;-1.00;101154;1304;1004847;-35
2023/01/08 10:25:23;;;;;;;22.60;13.50;;;;;;;-128.00;-1.00;-1.00;101256;1304;1004833;-35
2023/01/08 10:27:56;;;;;;;20.00;11.00;;;;;;;-128.00;-1.00;-1.00;101234;1298;1003180;-31
2023/01/08 10:30:27;;;;;;;12.50;8.50;;;;;;;-128.00;-1.00;-1.00;101178;1304;1002913;-32
2023/01/08 10:32:54;;;;;;;18.60;12.00;;;;;;;-128.00;-1.00;-1.00;101255;1304;1003518;-31
2023/01/08 10:35:21;;;;;;;20.20;10.90;;;;;;;-128.00;-1.00;-1.00;101143;1304;1002429;-35
2023/01/08 10:37:49;;;;;;;22.80;12.90;;;;;;;-128.00;-1.00;-1.00;101229;1298;1003506;-36
2023/01/08 10:40:38;;;;;;;24.00;13.70;;;;;;;-128.00;-1.00;-1.00;101088;1298;1004439;-31
2023/01/08 10:43:17;;;;;;;25.50;11.70;;;;;;;-128.00;-1.00;-1.00;101300;1304;1003695;-35
2023/01/08 10:45:45;;;;;;;20.70;13.60;;;;;;;-128.00;-1.00;-1.00;101181;1304;1003000;-34
2023/01/08 10:48:17;;;;;;;16.70;10.60;;;;;;;-128.00;-1.00;-1.00;101202;1301;1002738;-34
2023/01/08 10:50:42;;;;;;;15.90;9.30;;;;;;;-128.00;-1.00;-1.00;101154;1304;1003037;-30
2023/01/08 10:53:24;;;;;;;19.10;11.90;;;;;;;-128.00;-1.00;-1.00;101016;1304;1003905;-31
2023/01/08 10:56:02;;;;;;;19.90;11.90;;;;;;;-128.00;-1.00;-1.00;101116;1304;1003027;-30
2023/01/08 10:58:28;;;;;;;15.80;10.80;;;;;;;-128.00;-1.00;-1.00;101189;1304;1004195;-32
2023/01/08 11:00:56;;;;;;;29.50;15.20;;;;;;;-128.00;-1.00;-1.00;101170;1304;1003824;-34
2023/01/08 11:03:30;;;;;;;19.70;11.30;;;;;;;-128.00;-1.00;-1.00;101167;1304;1002884;-31
2023/01/08 11:47:13;;;;;;;23.10;13.10;;;;;;;8.93;92.57;98777.98;104699;1302;559045;-35
2023/01/08 11:50:09;;;;;;;31.40;14.60;;;;;;;8.84;92.75;98766.42;104638;1298;255166;-34
2023/01/08 11:52:51;;;;;;;36.00;14.10;;;;;;;8.97;93.88;98757.64;104632;1303;25506;-34
2023/01/08 11:55:28;;;;;;;25.30;11.00;;;;;;;9.28;93.55;98753.48;104883;1291;22570;-31
2023/01/08 11:58:14;;;;;;;21.20;12.00;;;;;;;9.54;92.41;98750.98;104676;1303;23131;-31
2023/01/08 12:00:59;;;;;;;19.20;11.00;;;;;;;9.56;90.51;98759.92;104786;1292;22641;-31
2023/01/08 12:03:35;;;;;;;20.20;9.20;;;;;;;9.39;90.57;98760.70;104807;1295;24304;-32
2023/01/08 12:06:23;;;;;;;20.50;12.00;;;;;;;9.37;90.88;98767.16;104753;1289;24308;-31
2023/01/08 12:09:13;;;;;;;23.20;11.40;;;;;;;9.09;89.19;98768.76;104634;1302;24297;-35
2023/01/08 12:11:46;;;;;;;18.80;11.00;;;;;;;8.75;91.27;98768.20;104818;1292;24448;-32
2023/01/08 12:14:40;;;;;;;19.10;11.60;;;;;;;8.83;91.96;98761.73;104883;1291;22560;-34
2023/01/08 12:17:23;;;;;;;24.80;13.30;;;;;;;8.83;91.81;98755.67;104704;1295;24310;-35
2023/01/08 12:20:08;;;;;;;26.30;14.60;;;;;;;8.95;91.75;98755.09;104804;1289;23155;-31
2023/01/08 12:22:49;;;;;;;104.20;31.30;;;;;;;8.99;92.60;98748.95;104861;1289;25392;-34
2023/01/08 12:25:42;;;;;;;101.80;26.20;;;;;;;9.05;91.91;98740.45;104784;1292;22689;-32
2023/01/08 12:28:31;;;;;;;30.40;11.80;;;;;;;9.16;92.29;98732.59;104823;1292;24344;-32